Time;durP1;ratioP1;P1;durP2;ratioP2;P2;SDS_P1;SDS_P2;PMS_P1;PMS_P2;Temp;Humidity;BMP_temperature;BMP_pressure;BME280_temperature;BME280_humidity;BME280_pressure;Samples;Min_cycle;Max_cycle;Signal;HPM_P1;HPM_P2
2022/03/14 00:02:11;;;;;;;;;3.50;2.25;;;;;9.09;67.85;101561.53;6309322;22;47545;-81
2022/03/14 00:05:04;;;;;;;;;2.00;1.75;;;;;9.08;67.74;101572.91;6310818;22;45343;-81
2022/03/14 00:07:46;;;;;;;;;2.00;2.00;;;;;8.99;67.97;101550.03;6308373;22;45302;-81
2022/03/14 00:10:37;;;;;;;;;3.75;3.00;;;;;9.00;67.75;101557.03;6310433;22;45374;-80
2022/03/14 00:13:32;;;;;;;;;2.75;2.00;;;;;9.01;67.71;101564.06;6336492;22;45503;-81
2022/03/14 00:15:58;;;;;;;;;4.00;2.75;;;;;9.04;67.50;101572.88;6311646;22;45385;-81
2022/03/14 00:18:24;;;;;;;;;3.75;2.75;;;;;9.01;67.36;101562.31;6337121;22;45683;-80
2022/03/14 00:21:48;;;;;;;;;;;;;;;;;;;;;
2022/03/14 00:24:02;;;;;;;;;2.25;1.50;;;;;9.02;67.59;101581.59;6287970;22;45950;-80
2022/03/14 00:26:27;;;;;;;;;2.00;2.00;;;;;9.06;67.51;101599.16;6311296;22;45286;-80
2022/03/14 00:29:03;;;;;;;;;6.50;3.00;;;;;9.11;67.22;101599.22;6339434;22;45283;-80
2022/03/14 00:31:30;;;;;;;;;3.00;2.00;;;;;9.11;67.31;101623.75;6311959;22;45675;-80
2022/03/14 00:33:58;;;;;;;;;4.00;4.00;;;;;9.13;67.33;101626.41;6312866;22;47473;-80
2022/03/14 00:36:25;;;;;;;;;5.00;2.00;;;;;9.08;67.35;101615.81;6312204;22;45392;-80
2022/03/14 00:39:19;;;;;;;;;;;;;;;;;;;;;
2022/03/14 00:41:48;;;;;;;;;2.00;1.00;;;;;9.11;67.10;101629.00;6339076;22;73779;-81
2022/03/14 00:44:41;;;;;;;;;4.00;4.00;;;;;9.19;67.28;101643.13;6312389;22;46659;-79
2022/03/14 00:47:07;;;;;;;;;2.00;2.00;;;;;9.14;67.12;101643.94;6314045;22;45421;-80
2022/03/14 00:49:53;;;;;;;;;4.25;2.00;;;;;9.15;67.23;101645.72;6342127;22;45255;-79
2022/03/14 00:52:19;;;;;;;;;0.00;0.00;;;;;9.24;67.01;101665.13;6340737;22;45414;-80
2022/03/14 00:54:47;;;;;;;;;2.00;1.00;;;;;9.20;66.77;101662.44;6339555;22;45358;-81
2022/03/14 00:57:59;;;;;;;;;1.25;1.25;;;;;9.15;66.70;101654.47;6343880;22;45377;-84
2022/03/14 01:00:30;;;;;;;;;1.75;1.50;;;;;9.24;66.70;101672.13;6225234;22;45232;-83
2022/03/14 01:04:01;;;;;;;;;;;;;;;;;;;;;
2022/03/14 01:09:51;;;;;;;;;;;;;;;;;;;;;
2022/03/14 01:12:46;;;;;;;;;2.00;2.00;;;;;9.24;66.60;101680.00;6307836;22;69447;-84
2022/03/14 01:15:14;;;;;;;;;2.00;1.00;;;;;9.39;66.52;101710.94;6308286;22;45631;-84
2022/03/14 01:17:45;;;;;;;;;2.00;2.00;;;;;9.30;66.64;101692.38;6310961;22;46235;-83
2022/03/14 06:48:52;;;;;;;;;2.50;2.50;;;;;8.14;67.66;102167.50;6254891;22;45443;-84
2022/03/14 06:51:24;;;;;;;;;6.00;4.50;;;;;8.11;67.46;102170.03;6281624;22;45336;-83
2022/03/14 06:53:50;;;;;;;;;4.00;4.00;;;;;8.29;67.35;102195.03;6309598;22;45175;-84
2022/03/14 06:56:23;;;;;;;;;3.75;3.00;;;;;8.31;67.69;102199.50;6310017;22;45222;-84
2022/03/14 06:58:58;;;;;;;;;6.00;5.00;;;;;8.25;67.49;102169.56;6281652;22;48127;-84
2022/03/14 07:01:24;;;;;;;;;4.25;4.25;;;;;8.35;67.54;102192.59;6310047;22;45201;-84
2022/03/14 07:03:53;;;;;;;;;10.50;8.00;;;;;8.25;67.42;102172.16;6282044;22;45378;-84
2022/03/14 07:06:19;;;;;;;;;5.25;3.75;;;;;8.35;67.30;102193.47;6281602;22;45354;-84
2022/03/14 07:08:45;;;;;;;;;9.00;6.00;;;;;8.44;67.32;102210.34;6281425;22;47880;-82
2022/03/14 07:11:10;;;;;;;;;6.50;6.50;;;;;8.38;67.20;102209.31;6281645;22;45300;-85
2022/03/14 07:13:38;;;;;;;;;4.75;4.75;;;;;8.34;67.17;102220.56;6282400;22;45203;-85
2022/03/14 07:16:04;;;;;;;;;7.25;6.25;;;;;8.30;67.11;102221.31;6281597;22;45823;-82
2022/03/14 07:18:30;;;;;;;;;7.75;6.00;;;;;8.44;67.33;102240.09;6281895;22;47690;-83
2022/03/14 07:20:58;;;;;;;;;7.25;5.25;;;;;8.45;67.44;102233.16;6282785;22;45687;-82
2022/03/14 07:23:35;;;;;;;;;8.00;8.00;;;;;8.44;66.92;102226.09;6281937;22;45290;-80
2022/03/14 07:26:22;;;;;;;;;7.00;6.00;;;;;8.47;67.25;102227.06;6281488;22;45382;-82
2022/03/14 07:28:56;;;;;;;;;10.25;7.25;;;;;8.66;67.11;102248.59;6281482;22;47457;-81
2022/03/14 07:31:41;;;;;;;;;;;;;;;;;;;;;
2022/03/14 07:34:08;;;;;;;;;6.50;4.50;;;;;8.61;67.14;102246.75;6308642;22;67706;-81
2022/03/14 07:36:34;;;;;;;;;7.75;7.75;;;;;8.75;67.41;102269.88;6281128;22;45296;-82
2022/03/14 07:39:01;;;;;;;;;5.75;4.75;;;;;8.67;66.95;102248.66;6281237;22;46232;-81
2022/03/14 07:41:27;;;;;;;;;8.50;7.00;;;;;8.73;66.88;102259.31;6281185;22;45427;-82
2022/03/14 07:43:53;;;;;;;;;9.50;7.75;;;;;8.79;66.87;102271.72;6281559;22;45307;-82
2022/03/14 07:46:18;;;;;;;;;7.50;7.50;;;;;8.69;67.14;102260.09;6307788;22;45426;-81
2022/03/14 07:48:43;;;;;;;;;7.25;7.25;;;;;8.71;66.40;102273.25;6281098;22;46877;-81
2022/03/14 07:51:09;;;;;;;;;8.00;5.00;;;;;8.75;66.90;102275.13;6309852;22;45255;-82
2022/03/14 07:53:35;;;;;;;;;7.75;7.75;;;;;8.72;66.86;102280.31;6281137;22;45304;-82
2022/03/14 07:56:21;;;;;;;;;;;;;;;;;;;;;
2022/03/14 07:58:47;;;;;;;;;7.25;5.00;;;;;8.79;66.39;102280.53;6307992;22;73833;-83
2022/03/14 08:01:14;;;;;;;;;9.25;6.25;;;;;8.94;66.56;102308.94;6309736;22;45184;-83
2022/03/14 08:03:40;;;;;;;;;11.00;7.50;;;;;8.99;66.33;102316.97;6310182;22;45259;-83
2022/03/14 08:06:08;;;;;;;;;5.25;3.00;;;;;9.03;66.48;102310.94;6310214;22;45433;-84
2022/03/14 08:08:37;;;;;;;;;6.00;5.25;;;;;9.08;66.44;102303.19;6280576;22;46961;-84
2022/03/14 08:11:04;;;;;;;;;9.25;8.00;;;;;9.04;66.37;102291.72;6280955;22;45261;-83
2022/03/14 08:13:30;;;;;;;;;5.00;5.00;;;;;9.09;66.20;102307.56;6308937;22;45221;-85
2022/03/14 08:17:14;;;;;;;;;8.25;7.75;;;;;9.05;66.17;102304.00;6281334;22;45605;-86
2022/03/14 08:19:57;;;;;;;;;7.50;6.75;;;;;9.24;65.93;102331.66;6285752;22;45537;-84
2022/03/14 08:22:35;;;;;;;;;;;;;;;;;;;;;
2022/03/14 08:28:47;;;;;;;;;6.75;6.25;;;;;9.31;65.97;102317.84;6285126;22;45157;-83
2022/03/14 08:31:50;;;;;;;;;;;;;;;;;;;;;
2022/03/14 08:34:10;;;;;;;;;4.75;4.75;;;;;9.58;66.17;102336.06;6300157;22;45256;-84
2022/03/14 08:37:38;;;;;;;;;7.50;5.50;;;;;9.65;65.67;102338.03;6309186;22;45304;-84
2022/03/14 08:40:22;;;;;;;;;9.75;8.00;;;;;9.74;65.50;102347.00;6289591;22;45361;-84
2022/03/14 08:46:16;;;;;;;;;8.25;7.25;;;;;9.87;65.27;102363.13;6282767;22;45497;-82
2022/03/14 08:48:42;;;;;;;;;7.50;7.50;;;;;9.92;65.27;102363.25;6280817;22;45370;-81
2022/03/14 08:51:08;;;;;;;;;7.50;7.50;;;;;9.91;65.18;102353.56;6281619;22;45586;-81
2022/03/14 08:53:34;;;;;;;;;8.00;8.00;;;;;9.99;65.37;102356.38;6306834;22;48188;-81
2022/03/14 08:56:03;;;;;;;;;7.75;6.75;;;;;10.04;65.27;102349.50;6281515;22;45691;-82
2022/03/14 08:58:32;;;;;;;;;10.00;8.75;;;;;10.13;65.06;102363.78;6310120;22;45448;-82
2022/03/14 09:01:00;;;;;;;;;10.00;7.50;;;;;10.23;64.60;102369.25;6282042;22;46041;-81
2022/03/14 09:03:28;;;;;;;;;8.00;8.00;;;;;10.32;64.84;102366.88;6309504;22;47441;-82
2022/03/14 09:05:58;;;;;;;;;11.00;7.00;;;;;10.31;64.76;102352.81;6310444;22;45480;-83
2022/03/14 09:08:47;;;;;;;;;7.75;6.00;;;;;10.43;64.35;102362.75;6282769;22;45320;-85
2022/03/14 09:21:36;;;;;;;;;;;;;;;;;;;;;
2022/03/14 09:27:47;;;;;;;;;12.25;10.50;;;;;10.99;63.60;102383.28;6170457;23;45661;-79
2022/03/14 09:30:34;;;;;;;;;5.00;4.00;;;;;11.00;63.40;102377.16;6181366;23;45460;-80
2022/03/14 09:33:07;;;;;;;;;8.50;7.75;;;;;11.11;63.06;102386.16;6156401;23;45230;-79
2022/03/14 09:46:11;;;;;;;;;9.50;7.00;;;;;11.39;62.53;102389.38;6210765;22;45450;-80
2022/03/14 09:49:07;;;;;;;;;;;;;;;;;;;;;
2022/03/14 09:52:17;;;;;;;;;7.50;6.00;;;;;11.55;62.26;102396.72;6276009;22;75261;-79
2022/03/14 09:54:43;;;;;;;;;4.00;4.00;;;;;11.60;62.01;102370.41;6271696;22;45338;-78
2022/03/14 09:57:18;;;;;;;;;;;;;;;;;;;;;
2022/03/14 09:59:44;;;;;;;;;9.00;9.00;;;;;11.77;62.08;102384.81;6274550;22;72638;-78
2022/03/14 10:02:15;;;;;;;;;7.25;6.75;;;;;11.77;61.89;102376.00;6273757;22;45845;-79
2022/03/14 10:04:46;;;;;;;;;8.00;7.00;;;;;11.87;61.45;102384.16;6277707;22;45517;-79
2022/03/14 10:23:14;;;;;;;;;;;;;;;;;;;;;
2022/03/14 10:25:43;;;;;;;;;7.00;7.00;;;;;12.86;60.41;102391.81;6338395;22;75274;-79
2022/03/14 10:28:17;;;;;;;;;10.00;10.00;;;;;12.95;58.59;102399.84;6312141;22;45144;-80
2022/03/14 10:35:40;;;;;;;;;;;;;;;;;;;;;
2022/03/14 10:38:13;;;;;;;;;10.00;8.50;;;;;13.34;58.23;102410.94;6138000;23;73969;-80
2022/03/14 10:43:51;;;;;;;;;8.25;5.75;;;;;13.58;57.61;102407.69;6150541;23;45426;-79
2022/03/14 10:46:28;;;;;;;;;8.00;8.00;;;;;13.70;57.76;102399.88;6322529;22;45437;-80
2022/03/14 10:49:14;;;;;;;;;7.00;5.25;;;;;13.79;56.65;102388.47;6340342;22;45578;-78
2022/03/14 10:52:22;;;;;;;;;7.75;7.00;;;;;13.96;56.49;102396.59;6291424;22;46074;-78
2022/03/14 10:54:56;;;;;;;;;7.75;7.00;;;;;14.09;56.81;102403.78;6304738;22;45589;-78
2022/03/14 10:57:30;;;;;;;;;6.75;5.75;;;;;14.20;55.68;102396.81;6312025;22;45364;-78
2022/03/14 11:00:18;;;;;;;;;8.25;6.75;;;;;14.29;55.63;102391.56;6340324;22;45432;-78
2022/03/14 11:03:20;;;;;;;;;10.25;7.00;;;;;14.45;54.55;102403.16;6312627;22;45357;-80
2022/03/14 11:06:05;;;;;;;;;;;;;;;;;;;;;
2022/03/14 11:09:04;;;;;;;;;;;;;;;;;;;;;
2022/03/14 11:11:29;;;;;;;;;6.50;6.00;;;;;14.76;53.73;102419.31;6339132;22;75213;-80
2022/03/14 11:17:56;;;;;;;;;9.00;4.25;;;;;14.95;53.59;102407.03;6188484;22;45539;-79
2022/03/14 11:21:25;;;;;;;;;;;;;;;;;;;;;
2022/03/14 11:24:21;;;;;;;;;10.50;8.00;;;;;15.27;52.65;102393.03;6311148;22;76757;-80
2022/03/14 11:27:24;;;;;;;;;9.00;9.00;;;;;15.37;51.51;102392.16;6319393;22;45241;-80
2022/03/14 11:30:04;;;;;;;;;7.50;5.25;;;;;15.39;51.63;102380.66;6315118;22;45285;-81
2022/03/14 11:32:44;;;;;;;;;6.75;5.75;;;;;15.38;52.00;102384.19;6310106;22;45805;-81
2022/03/14 11:36:46;;;;;;;;;;;;;;;;;;;;;
2022/03/14 11:39:23;;;;;;;;;12.25;8.25;;;;;15.73;50.84;102378.09;6150042;23;72831;-81
2022/03/14 11:41:49;;;;;;;;;7.75;6.75;;;;;15.87;50.80;102386.97;6164733;22;45457;-80
2022/03/14 11:44:25;;;;;;;;;5.50;4.25;;;;;16.02;50.06;102382.56;6319904;22;45349;-80
2022/03/14 11:46:53;;;;;;;;;7.00;3.75;;;;;16.15;49.44;102367.50;6309512;22;48025;-81
2022/03/14 11:49:32;;;;;;;;;5.00;3.67;;;;;16.24;49.45;102364.81;6310158;22;45318;-83
2022/03/14 11:52:59;;;;;;;;;7.00;6.00;;;;;16.38;49.27;102347.06;6310492;22;45284;-80
2022/03/14 11:55:31;;;;;;;;;3.75;3.00;;;;;16.51;48.01;102356.78;6307812;22;45610;-81
2022/03/14 12:09:38;;;;;;;;;;;;;;;;;;;;;
2022/03/14 12:19:28;;;;;;;;;;;;;;;;;;;;;
2022/03/14 12:22:07;;;;;;;;;4.00;2.33;;;;;17.40;42.94;102303.22;6056632;23;73043;-81
2022/03/14 12:24:38;;;;;;;;;3.00;3.00;;;;;17.56;41.50;102305.75;6122259;23;45335;-79
2022/03/14 12:59:32;;;;;;;;;3.33;3.33;;;;;19.05;38.40;102285.53;5977452;23;46085;-79
2022/03/14 13:37:20;;;;;;;;;2.33;2.00;;;;;21.11;33.26;102288.00;6092217;23;45362;-76
2022/03/14 13:43:11;;;;;;;;;;;;;;;;;;;;;
2022/03/14 15:14:27;;;;;;;;;;;;;;;;;;;;;
2022/03/14 15:20:44;;;;;;;;;0.33;0.33;;;;;39.73;13.48;102227.78;6368611;22;45469;-84
2022/03/14 15:27:11;;;;;;;;;0.00;0.00;;;;;39.78;12.84;102238.34;6224770;22;46666;-88
2022/03/14 15:29:42;;;;;;;;;2.00;2.00;;;;;39.73;12.84;102232.44;6342419;22;45304;-85
2022/03/14 15:32:10;;;;;;;;;4.00;2.00;;;;;39.82;12.91;102237.88;6369154;22;45257;-89
2022/03/14 15:37:58;;;;;;;;;;;;;;;;;;;;;
2022/03/14 15:53:56;;;;;;;;;1.00;0.67;;;;;38.01;12.80;102201.09;6261929;22;45506;-82
2022/03/14 15:57:19;;;;;;;;;;;;;;;;;;;;;
2022/03/14 16:06:06;;;;;;;;;0.67;0.67;;;;;36.62;13.41;102195.91;6337601;22;45351;-83
2022/03/14 16:09:52;;;;;;;;;;;;;;;;;;;;;
2022/03/14 16:12:13;;;;;;;;;2.67;1.33;;;;;35.05;13.84;102193.19;6289958;22;46770;-84
2022/03/14 16:14:39;;;;;;;;;1.67;1.67;;;;;34.19;14.12;102180.28;6341442;22;47823;-84
2022/03/14 16:21:39;;;;;;;;;;;;;;;;;;;;;
2022/03/14 16:31:34;;;;;;;;;3.67;3.67;;;;;31.52;16.39;102148.53;6150508;23;45299;-87
2022/03/14 16:34:00;;;;;;;;;5.00;5.00;;;;;31.02;17.06;102151.00;6134058;23;45352;-79
2022/03/14 16:49:09;;;;;;;;;7.00;4.00;;;;;29.30;18.75;102178.19;6266886;22;45317;-91
2022/03/14 16:52:15;;;;;;;;;4.33;3.67;;;;;28.42;18.84;102176.91;6309779;22;47412;-85
2022/03/14 17:12:52;;;;;;;;;2.67;2.00;;;;;22.82;23.49;102180.56;6121481;23;45408;-88
2022/03/14 17:15:28;;;;;;;;;;;;;;;;;;;;;
2022/03/14 17:18:41;;;;;;;;;2.33;1.67;;;;;21.75;25.01;102198.00;6321302;22;75486;-86
2022/03/14 17:22:05;;;;;;;;;2.33;2.33;;;;;21.24;25.52;102200.22;6283038;22;45190;-86
2022/03/14 17:24:30;;;;;;;;;1.00;1.00;;;;;20.83;25.78;102200.28;6139883;22;45458;-87
2022/03/14 17:29:45;;;;;;;;;5.00;4.00;;;;;20.16;26.81;102201.72;6244681;22;46788;-83
2022/03/14 17:32:20;;;;;;;;;2.00;2.00;;;;;19.84;27.03;102203.25;6265973;22;45934;-85
2022/03/14 17:34:48;;;;;;;;;1.67;1.67;;;;;19.55;27.69;102203.72;6339404;22;45336;-83
2022/03/14 17:37:21;;;;;;;;;4.67;2.67;;;;;19.26;27.92;102209.56;6337024;22;45308;-85
2022/03/14 17:39:46;;;;;;;;;2.33;2.33;;;;;18.95;28.57;102192.25;6339696;22;45442;-83
2022/03/14 17:42:12;;;;;;;;;3.33;3.00;;;;;18.78;28.84;102199.63;6339309;22;45370;-83
2022/03/14 17:44:38;;;;;;;;;4.67;2.67;;;;;18.55;29.11;102202.59;6340519;22;45449;-84
2022/03/14 17:47:09;;;;;;;;;5.00;3.00;;;;;18.35;29.92;102202.84;6339563;22;45220;-84
2022/03/14 17:49:35;;;;;;;;;4.00;3.67;;;;;18.25;30.06;102219.84;6338813;22;45346;-85
2022/03/14 17:52:01;;;;;;;;;7.00;4.00;;;;;18.08;30.26;102228.03;6310532;22;45701;-84
2022/03/14 17:54:27;;;;;;;;;2.33;2.33;;;;;17.90;30.99;102228.25;6311930;22;45373;-85
2022/03/14 17:56:53;;;;;;;;;0.00;0.00;;;;;17.64;31.55;102210.69;6312133;22;45584;-84
2022/03/14 17:59:19;;;;;;;;;2.67;2.33;;;;;17.45;32.04;102214.41;6341248;22;46209;-84
2022/03/14 18:01:45;;;;;;;;;4.00;3.00;;;;;17.26;32.54;102221.69;6311230;22;45219;-83
2022/03/14 18:04:23;;;;;;;;;;;;;;;;;;;;;
2022/03/14 18:06:51;;;;;;;;;2.67;2.67;;;;;16.95;33.42;102222.78;6336512;22;71420;-83
2022/03/14 18:09:28;;;;;;;;;6.00;3.00;;;;;16.81;33.81;102223.75;6313690;22;47904;-87
2022/03/14 18:11:54;;;;;;;;;7.00;4.00;;;;;16.68;34.24;102223.81;6337579;22;45295;-83
2022/03/14 18:14:22;;;;;;;;;4.00;4.00;;;;;16.57;34.24;102224.72;6339437;22;45242;-83
2022/03/14 18:16:51;;;;;;;;;5.00;4.00;;;;;16.50;34.70;102235.41;6340445;22;45416;-84
2022/03/14 18:19:17;;;;;;;;;3.33;3.33;;;;;16.45;34.95;102244.28;6311377;22;46795;-83
2022/03/14 18:21:52;;;;;;;;;;;;;;;;;;;;;
2022/03/14 18:24:18;;;;;;;;;7.25;4.75;;;;;16.18;35.71;102237.28;6338960;22;68160;-84
2022/03/14 18:26:43;;;;;;;;;8.00;4.75;;;;;16.17;35.51;102244.41;6309822;22;45493;-84
2022/03/14 18:29:09;;;;;;;;;4.33;3.00;;;;;16.00;36.21;102238.22;6311538;22;47912;-82
2022/03/14 18:31:35;;;;;;;;;6.00;5.25;;;;;15.96;36.38;102252.38;6309631;22;45251;-82
2022/03/14 18:34:04;;;;;;;;;4.75;3.50;;;;;15.89;36.50;102267.47;6338436;22;45309;-83
2022/03/14 18:36:30;;;;;;;;;5.00;4.00;;;;;15.87;36.46;102266.56;6338517;22;45357;-83
2022/03/14 18:39:09;;;;;;;;;5.75;4.75;;;;;15.77;36.69;102262.16;6311258;22;45886;-83
2022/03/14 18:44:54;;;;;;;;;4.25;4.25;;;;;15.64;37.39;102266.56;6323558;22;45343;-83
2022/03/14 18:48:24;;;;;;;;;11.25;8.50;;;;;15.50;37.10;102258.56;6312961;22;45314;-82
2022/03/14 18:50:55;;;;;;;;;5.00;3.50;;;;;15.44;37.45;102259.47;6238476;22;45548;-81
2022/03/14 18:53:52;;;;;;;;;6.75;6.75;;;;;15.48;37.54;102276.28;6314137;22;45333;-81
2022/03/14 18:56:43;;;;;;;;;5.00;5.00;;;;;15.35;37.71;102258.59;6314327;22;45557;-82
2022/03/14 19:00:03;;;;;;;;;;;;;;;;;;;;;
2022/03/14 19:02:54;;;;;;;;;9.00;6.75;;;;;15.30;38.31;102268.31;6328689;22;45472;-81
2022/03/14 19:12:10;;;;;;;;;5.25;5.25;;;;;15.17;38.50;102275.38;6180600;22;45340;-82
2022/03/14 19:14:41;;;;;;;;;9.25;7.25;;;;;15.12;38.66;102270.03;6187033;22;47972;-82
2022/03/14 19:17:11;;;;;;;;;6.75;6.50;;;;;15.12;38.80;102282.41;6187128;22;45333;-81
2022/03/14 19:19:48;;;;;;;;;9.25;8.25;;;;;14.99;39.20;102270.88;6253389;22;45441;-81
2022/03/14 19:22:17;;;;;;;;;13.00;10.50;;;;;15.03;39.64;102282.41;6338088;22;45264;-80
2022/03/14 19:24:43;;;;;;;;;7.75;6.00;;;;;14.97;39.23;102275.34;6312197;22;47130;-80
2022/03/14 19:27:09;;;;;;;;;13.50;11.25;;;;;14.89;39.30;102274.38;6316342;22;45402;-79
2022/03/14 19:29:34;;;;;;;;;10.25;8.00;;;;;14.89;39.75;102285.00;6341137;22;45465;-83
2022/03/14 19:32:45;;;;;;;;;5.75;5.75;;;;;14.78;39.87;102264.66;6312471;22;45585;-82
2022/03/14 19:35:15;;;;;;;;;8.50;7.50;;;;;14.79;39.90;102270.84;6314718;22;47277;-79
2022/03/14 19:37:46;;;;;;;;;9.25;8.50;;;;;14.74;40.26;102277.91;6341025;22;45364;-81
2022/03/14 19:40:12;;;;;;;;;9.75;8.00;;;;;14.70;40.05;102274.34;6312037;22;45340;-81
2022/03/14 19:42:47;;;;;;;;;9.75;7.50;;;;;14.68;40.09;102267.28;6311096;22;45203;-81
2022/03/14 19:45:12;;;;;;;;;14.50;11.00;;;;;14.62;40.65;102259.28;6345279;22;45493;-81
2022/03/14 19:47:41;;;;;;;;;10.25;10.00;;;;;14.60;40.19;102259.28;6339881;22;45415;-81
2022/03/14 19:50:07;;;;;;;;;9.25;9.25;;;;;14.64;40.80;102266.34;6311083;22;45452;-81
2022/03/14 19:52:32;;;;;;;;;9.25;8.00;;;;;14.53;40.58;102244.22;6311245;22;45592;-81
2022/03/14 19:54:58;;;;;;;;;14.75;10.75;;;;;14.54;41.07;102262.81;6312344;22;45990;-80
2022/03/14 19:57:24;;;;;;;;;11.50;8.00;;;;;14.52;40.82;102269.84;6340521;22;45642;-81
2022/03/14 19:59:49;;;;;;;;;8.00;8.00;;;;;14.50;40.72;102260.97;6310984;22;45667;-81
2022/03/14 20:02:15;;;;;;;;;11.50;9.25;;;;;14.54;40.75;102265.47;6309485;22;45792;-79
2022/03/14 20:04:44;;;;;;;;;4.50;4.50;;;;;14.42;40.71;102248.56;6309147;22;46447;-79
2022/03/14 20:07:12;;;;;;;;;10.00;8.25;;;;;14.45;41.17;102254.75;6339446;22;45547;-79
2022/03/14 20:09:37;;;;;;;;;12.50;11.50;;;;;14.44;41.44;102253.00;6310672;22;45728;-81
2022/03/14 20:12:03;;;;;;;;;12.50;11.00;;;;;14.38;41.20;102252.06;6311595;22;45549;-81
2022/03/14 20:14:34;;;;;;;;;14.00;10.50;;;;;14.38;41.55;102268.88;6310343;22;47090;-81
2022/03/14 20:17:07;;;;;;;;;12.75;10.00;;;;;14.33;41.74;102271.50;6338897;22;45374;-82
2022/03/14 20:22:51;;;;;;;;;6.25;4.50;;;;;14.19;41.75;102259.91;6243513;22;45470;-81
2022/03/14 20:25:30;;;;;;;;;;;;;;;;;;;;;
2022/03/14 20:28:44;;;;;;;;;;;;;;;;;;;;;
2022/03/14 20:31:26;;;;;;;;;;;;;;;;;;;;;
2022/03/14 20:34:02;;;;;;;;;12.75;11.25;;;;;14.16;42.40;102262.56;6341915;22;73475;-81
2022/03/14 20:36:37;;;;;;;;;8.50;7.25;;;;;14.15;42.43;102257.28;6314362;22;47771;-81
2022/03/14 20:39:07;;;;;;;;;16.50;13.75;;;;;14.03;42.49;102251.03;6314262;22;45310;-81
2022/03/14 20:41:32;;;;;;;;;8.75;7.75;;;;;14.13;42.57;102271.38;6313031;22;45529;-79
2022/03/14 20:43:58;;;;;;;;;12.75;9.25;;;;;14.04;42.92;102262.50;6312897;22;45735;-79
2022/03/14 20:46:27;;;;;;;;;9.00;9.00;;;;;14.03;42.84;102264.28;6314694;22;46130;-81
2022/03/14 20:48:55;;;;;;;;;10.50;6.25;;;;;13.99;43.10;102253.63;6314098;22;45513;-80
2022/03/14 20:51:21;;;;;;;;;16.75;10.00;;;;;14.02;42.97;102265.13;6314932;22;45299;-79
2022/03/14 20:53:46;;;;;;;;;9.50;9.50;;;;;14.06;43.19;102272.22;6342322;22;45421;-81
2022/03/14 20:56:13;;;;;;;;;11.50;10.00;;;;;13.99;43.00;102269.53;6313159;22;46930;-82
2022/03/14 20:58:52;;;;;;;;;13.25;10.50;;;;;13.99;43.19;102277.47;6343779;22;45801;-82
2022/03/14 21:01:43;;;;;;;;;;;;;;;;;;;;;
2022/03/14 21:04:39;;;;;;;;;;;;;;;;;;;;;
2022/03/14 21:07:08;;;;;;;;;11.75;10.50;;;;;13.89;43.68;102265.91;6341118;22;74362;-80
2022/03/14 21:09:35;;;;;;;;;15.25;13.50;;;;;13.87;43.97;102279.16;6341867;22;45346;-79
2022/03/14 21:13:15;;;;;;;;;;;;;;;;;;;;;
2022/03/14 21:15:28;;;;;;;;;11.75;11.50;;;;;13.81;43.80;102272.91;6332815;22;45733;-80
2022/03/14 21:18:00;;;;;;;;;12.00;11.25;;;;;13.78;43.88;102264.97;6312727;22;45990;-80
2022/03/14 21:20:28;;;;;;;;;14.50;12.75;;;;;13.77;44.08;102276.44;6312424;22;45364;-80
2022/03/14 21:22:59;;;;;;;;;11.50;10.25;;;;;13.71;44.38;102277.25;6314998;22;44809;-83
2022/03/14 21:25:26;;;;;;;;;12.00;11.50;;;;;13.72;44.39;102275.50;6313126;22;45370;-80
2022/03/14 21:27:52;;;;;;;;;15.00;13.75;;;;;13.70;44.29;102271.97;6313626;22;48267;-80
2022/03/14 21:30:46;;;;;;;;;11.50;10.25;;;;;13.66;44.63;102265.75;6343118;22;45911;-81
2022/03/14 21:33:12;;;;;;;;;11.50;9.25;;;;;13.64;44.96;102268.38;6291794;22;45312;-82
2022/03/14 21:36:10;;;;;;;;;13.00;9.75;;;;;13.53;44.89;102248.91;6313882;22;45593;-80
2022/03/14 21:38:35;;;;;;;;;10.25;9.75;;;;;13.59;45.25;102263.94;6342692;22;46164;-80
2022/03/14 21:41:02;;;;;;;;;14.75;13.00;;;;;13.56;45.33;102264.78;6340364;22;45512;-80
2022/03/14 21:43:28;;;;;;;;;13.00;12.00;;;;;13.55;45.08;102259.47;6311336;22;45410;-80
2022/03/14 21:46:17;;;;;;;;;14.25;12.25;;;;;13.50;45.29;102262.09;6309496;22;45420;-81
2022/03/14 21:48:44;;;;;;;;;11.75;11.25;;;;;13.51;45.49;102260.34;6339791;22;46292;-80
2022/03/14 21:51:11;;;;;;;;;10.75;10.25;;;;;13.39;45.84;102240.84;6311857;22;45516;-79
2022/03/14 21:53:42;;;;;;;;;14.50;11.00;;;;;13.41;45.78;102247.00;6340313;22;45430;-80
2022/03/14 21:56:13;;;;;;;;;11.00;11.00;;;;;13.39;46.07;102240.84;6311021;22;45834;-80
2022/03/14 21:58:42;;;;;;;;;16.00;13.00;;;;;13.45;45.96;102255.88;6313503;22;46027;-81
2022/03/14 22:01:41;;;;;;;;;;;;;;;;;;;;;
2022/03/14 22:04:13;;;;;;;;;10.25;10.00;;;;;13.36;46.02;102250.50;6336936;22;69046;-82
2022/03/14 22:06:45;;;;;;;;;8.00;8.00;;;;;13.34;46.28;102252.22;6310051;22;45565;-80
2022/03/14 22:09:20;;;;;;;;;9.00;9.00;;;;;13.21;46.38;102235.34;6309383;22;45511;-80
2022/03/14 22:11:47;;;;;;;;;7.00;7.00;;;;;13.28;46.54;102255.69;6337764;22;45353;-82
2022/03/14 22:14:13;;;;;;;;;8.50;8.50;;;;;13.18;46.16;102235.31;6310748;22;45423;-78
2022/03/14 22:16:47;;;;;;;;;11.00;8.75;;;;;13.24;46.41;102251.25;6338219;22;45504;-78
2022/03/14 22:19:23;;;;;;;;;6.00;6.00;;;;;13.22;46.66;102242.41;6308175;22;48307;-81
2022/03/14 22:22:09;;;;;;;;;8.00;8.00;;;;;13.18;46.89;102238.84;6307439;22;45876;-79
2022/03/14 22:24:50;;;;;;;;;10.25;10.25;;;;;13.09;46.89;102222.88;6338363;22;45894;-81
2022/03/14 22:27:15;;;;;;;;;10.50;10.50;;;;;13.19;47.04;102240.59;6310042;22;45304;-80
2022/03/14 22:29:41;;;;;;;;;10.00;9.00;;;;;13.21;46.91;102238.88;6336713;22;45762;-81
2022/03/14 22:32:17;;;;;;;;;;;;;;;;;;;;;
2022/03/14 22:34:46;;;;;;;;;8.75;8.00;;;;;13.08;46.81;102218.47;6338156;22;67422;-82
2022/03/14 22:37:11;;;;;;;;;11.75;10.75;;;;;13.14;46.94;102233.50;6311314;22;45441;-80
2022/03/14 22:39:37;;;;;;;;;10.25;8.50;;;;;13.05;47.04;102223.72;6310190;22;47987;-82
2022/03/14 22:42:03;;;;;;;;;11.25;9.50;;;;;13.07;47.04;102234.31;6310645;22;45493;-81
2022/03/14 22:44:29;;;;;;;;;8.25;6.50;;;;;13.06;46.98;102236.06;6338794;22;45441;-81
2022/03/14 22:46:54;;;;;;;;;9.00;8.00;;;;;12.99;47.18;102210.44;6340854;22;45404;-81
2022/03/14 22:49:23;;;;;;;;;11.25;8.50;;;;;13.05;47.56;102218.44;6339859;22;45340;-81
2022/03/14 22:51:56;;;;;;;;;6.00;6.00;;;;;12.94;47.33;102201.59;6338467;22;45753;-81
2022/03/14 22:54:21;;;;;;;;;8.00;8.00;;;;;12.93;47.60;102203.31;6338268;22;45312;-81
2022/03/14 22:57:43;;;;;;;;;;;;;;;;;;;;;
2022/03/14 23:00:32;;;;;;;;;10.50;7.50;;;;;12.95;47.24;102204.25;6336192;22;74673;-81
2022/03/14 23:05:59;;;;;;;;;;;;;;;;;;;;;
2022/03/14 23:08:45;;;;;;;;;9.00;9.00;;;;;12.96;47.65;102213.97;6337095;22;72120;-80
2022/03/14 23:11:29;;;;;;;;;12.75;10.50;;;;;12.90;47.73;102210.34;6336118;22;45377;-81
2022/03/14 23:14:27;;;;;;;;;;;;;;;;;;;;;
2022/03/14 23:17:29;;;;;;;;;;;;;;;;;;;;;
2022/03/14 23:20:00;;;;;;;;;8.25;7.50;;;;;12.90;47.90;102211.22;6332140;22;71523;-80
2022/03/14 23:22:26;;;;;;;;;8.75;8.25;;;;;12.89;48.06;102214.75;6336910;22;45694;-81
2022/03/14 23:24:54;;;;;;;;;8.50;8.00;;;;;12.86;48.06;102205.94;6309597;22;45968;-81
2022/03/14 23:27:20;;;;;;;;;9.00;8.00;;;;;12.84;47.74;102203.25;6309674;22;45530;-80
2022/03/14 23:29:47;;;;;;;;;8.75;6.75;;;;;12.79;48.01;102189.97;6309807;22;45456;-81
2022/03/14 23:32:13;;;;;;;;;3.00;3.00;;;;;12.82;48.12;102204.09;6337407;22;45646;-81
2022/03/14 23:34:39;;;;;;;;;7.25;7.25;;;;;12.78;48.35;102190.84;6308374;22;45534;-80
2022/03/14 23:37:04;;;;;;;;;11.00;9.75;;;;;12.74;48.41;102178.47;6309422;22;45469;-81
2022/03/14 23:39:30;;;;;;;;;10.25;9.25;;;;;12.80;48.48;102186.47;6309548;22;45679;-80
2022/03/14 23:42:06;;;;;;;;;;;;;;;;;;;;;
2022/03/14 23:44:32;;;;;;;;;11.75;9.00;;;;;12.78;48.49;102171.47;6338858;22;72911;-79
2022/03/14 23:46:58;;;;;;;;;9.75;8.75;;;;;12.76;48.53;102162.66;6340069;22;45459;-83
2022/03/14 23:49:26;;;;;;;;;9.00;9.00;;;;;12.87;48.36;102176.84;6312527;22;45220;-81
2022/03/14 23:51:52;;;;;;;;;7.75;7.75;;;;;12.80;48.38;102151.22;6336413;22;46041;-82
2022/03/14 23:54:18;;;;;;;;;8.00;6.25;;;;;12.77;48.54;102138.84;6310436;22;45337;-81
2022/03/14 23:56:44;;;;;;;;;13.25;11.25;;;;;12.87;48.69;102157.47;6311363;22;45325;-82
2022/03/14 23:59:09;;;;;;;;;11.00;10.50;;;;;12.79;48.77;102147.69;6311122;22;45405;-82
